Time;durP1;ratioP1;P1;durP2;ratioP2;P2;SDS_P1;SDS_P2;PMS_P1;PMS_P2;Temp;Humidity;BMP_temperature;BMP_pressure;BME280_temperature;BME280_humidity;BME280_pressure;Samples;Min_cycle;Max_cycle;Signal;HPM_P1;HPM_P2
2022/12/28 00:02:12;;;;;;;;;;;;;;;7.06;51.96;99291.19;4394129;32;19943;-80
2022/12/28 00:04:38;;;;;;;;;;;;;;;7.62;50.32;99282.06;4394448;32;20012;-80
2022/12/28 00:07:05;;;;;;;;;;;;;;;7.97;48.57;99294.50;4393619;32;19946;-80
2022/12/28 00:09:32;;;;;;;;;;;;;;;7.20;50.98;99285.94;4394219;32;19961;-80
2022/12/28 00:11:58;;;;;;;;;;;;;;;7.44;50.44;99288.28;4394487;32;19990;-80
2022/12/28 00:14:25;;;;;;;;;;;;;;;6.82;51.43;99283.72;4394297;32;19961;-80
2022/12/28 00:16:52;;;;;;;;;;;;;;;6.18;53.40;99279.88;4394298;32;20016;-80
2022/12/28 00:19:18;;;;;;;;;;;;;;;7.49;50.34;99278.78;4394507;32;20034;-80
2022/12/28 00:21:45;;;;;;;;;;;;;;;7.87;49.31;99285.22;4394299;32;19943;-79
2022/12/28 00:24:17;;;;;;;;;;;;;;;8.06;48.35;99280.69;4394213;32;19946;-79
2022/12/28 00:26:44;;;;;;;;;;;;;;;7.53;49.30;99271.91;4394408;32;19981;-80
2022/12/28 00:29:10;;;;;;;;;;;;;;;7.83;48.92;99279.25;4394239;32;19950;-80
2022/12/28 00:35:00;;;;;;;;;;;;;;;8.09;48.06;99270.37;4394219;32;19969;-79
2022/12/28 00:37:26;;;;;;;;;;;;;;;8.88;45.94;99271.78;4394191;32;19963;-80
2022/12/28 00:39:59;;;;;;;;;;;;;;;8.18;47.13;99272.81;4394097;32;19981;-80
2022/12/28 00:42:25;;;;;;;;;;;;;;;8.59;46.18;99273.97;4394058;32;19961;-79
2022/12/28 00:44:52;;;;;;;;;;;;;;;8.85;45.02;99277.00;4393890;32;19950;-80
2022/12/28 00:47:19;;;;;;;;;;;;;;;8.78;44.89;99274.53;4394046;32;20005;-80
2022/12/28 00:49:54;;;;;;;;;;;;;;;8.11;46.17;99269.50;4393764;32;19947;-79
2022/12/28 00:52:21;;;;;;;;;;;;;;;8.77;44.76;99268.53;4394071;32;19954;-80
2022/12/28 00:54:48;;;;;;;;;;;;;;;8.95;43.82;99267.41;4393951;32;19950;-80
2022/12/28 00:57:14;;;;;;;;;;;;;;;8.46;45.30;99269.87;4393415;32;19988;-80
2022/12/28 00:59:49;;;;;;;;;;;;;;;8.50;45.39;99267.22;4393729;32;19946;-79
2022/12/28 01:02:15;;;;;;;;;;;;;;;8.54;45.31;99265.50;4393912;32;19946;-79
2022/12/28 01:04:42;;;;;;;;;;;;;;;8.53;45.17;99263.78;4393416;32;19950;-80
2022/12/28 01:07:09;;;;;;;;;;;;;;;8.81;44.41;99262.47;4393501;32;19965;-80
2022/12/28 01:09:40;;;;;;;;;;;;;;;8.80;44.54;99262.50;4393527;32;19942;-80
2022/12/28 01:12:07;;;;;;;;;;;;;;;8.49;45.05;99262.13;4393646;32;19961;-80
2022/12/28 01:14:34;;;;;;;;;;;;;;;8.04;45.71;99267.84;4393396;32;20764;-80
2022/12/28 01:17:00;;;;;;;;;;;;;;;7.43;46.80;99262.59;4392761;32;19978;-79
2022/12/28 01:19:27;;;;;;;;;;;;;;;6.87;48.56;99264.00;4394881;32;19950;-80
2022/12/28 01:21:54;;;;;;;;;;;;;;;7.04;49.13;99262.13;4395483;32;19954;-80
2022/12/28 01:24:21;;;;;;;;;;;;;;;6.98;49.41;99267.31;4395074;32;19951;-80
2022/12/28 01:26:48;;;;;;;;;;;;;;;6.60;50.44;99260.81;4395243;32;19977;-80
2022/12/28 01:29:15;;;;;;;;;;;;;;;6.93;50.16;99253.69;4395433;32;19950;-80
2022/12/28 01:31:41;;;;;;;;;;;;;;;6.85;50.32;99258.03;4394721;32;19942;-80
2022/12/28 01:34:08;;;;;;;;;;;;;;;6.79;50.20;99251.22;4394834;32;19981;-80
2022/12/28 01:36:35;;;;;;;;;;;;;;;7.77;47.52;99250.25;4394738;32;19947;-80
2022/12/28 01:39:03;;;;;;;;;;;;;;;7.60;48.00;99255.56;4394660;32;19942;-80
2022/12/28 01:41:34;;;;;;;;;;;;;;;7.22;49.32;99251.69;4395063;32;19955;-80
2022/12/28 01:44:01;;;;;;;;;;;;;;;6.62;50.92;99247.97;4395061;32;19955;-80
2022/12/28 01:46:37;;;;;;;;;;;;;;;6.82;50.66;99248.66;4394855;32;19959;-80
2022/12/28 01:49:08;;;;;;;;;;;;;;;7.00;49.96;99247.63;4395358;32;19942;-80
2022/12/28 01:51:44;;;;;;;;;;;;;;;7.22;48.82;99250.81;4382095;32;19959;-80
2022/12/28 01:54:11;;;;;;;;;;;;;;;7.52;47.73;99241.94;4395120;32;19955;-80
2022/12/28 01:56:38;;;;;;;;;;;;;;;7.59;47.79;99245.31;4394793;32;19950;-80
2022/12/28 01:59:04;;;;;;;;;;;;;;;7.38;48.30;99241.25;4394578;32;19985;-80
2022/12/28 02:01:33;;;;;;;;;;;;;;;7.22;48.98;99241.41;4394622;32;19963;-80
2022/12/28 02:04:00;;;;;;;;;;;;;;;7.13;49.00;99235.53;4382345;32;19962;-80
2022/12/28 02:06:28;;;;;;;;;;;;;;;6.57;50.90;99235.16;4394229;32;20010;-79
2022/12/28 02:09:00;;;;;;;;;;;;;;;6.19;52.78;99230.31;4394853;32;19978;-80
2022/12/28 02:11:27;;;;;;;;;;;;;;;6.17;53.11;99232.03;4381708;32;19947;-80
2022/12/28 02:13:54;;;;;;;;;;;;;;;6.90;50.93;99233.16;4381946;32;19973;-80
2022/12/28 02:16:21;;;;;;;;;;;;;;;6.91;49.98;99224.59;4381932;32;19978;-80
2022/12/28 02:18:48;;;;;;;;;;;;;;;7.29;48.84;99225.94;4394822;32;19946;-80
2022/12/28 02:21:21;;;;;;;;;;;;;;;7.44;47.78;99225.78;4394407;32;19951;-80
2022/12/28 02:24:00;;;;;;;;;;;;;;;6.49;50.00;99221.56;4382306;32;19959;-80
2022/12/28 02:26:30;;;;;;;;;;;;;;;6.52;50.40;99213.84;4394719;32;19955;-80
2022/12/28 02:29:16;;;;;;;;;;;;;;;6.96;49.52;99220.28;4381546;32;19993;-80
2022/12/28 02:35:37;;;;;;;;;;;;;;;7.23;48.94;99214.03;4393581;32;19969;-80
2022/12/28 02:38:23;;;;;;;;;;;;;;;7.18;48.60;99221.78;4369579;32;19973;-80
2022/12/28 02:44:03;;;;;;;;;;;;;;;7.33;48.79;99215.63;4394618;32;19964;-79
2022/12/28 02:52:37;;;;;;;;;;;;;;;6.39;51.41;99219.94;4394626;32;19950;-80
2022/12/28 02:58:11;;;;;;;;;;;;;;;7.48;48.93;99222.31;4394566;32;19954;-80
2022/12/28 03:00:46;;;;;;;;;;;;;;;6.92;50.68;99218.63;4394315;32;19954;-80
2022/12/28 03:03:20;;;;;;;;;;;;;;;7.48;49.04;99217.19;4394425;32;19950;-80
2022/12/28 03:08:32;;;;;;;;;;;;;;;7.82;47.77;99205.63;4394567;32;19954;-80
2022/12/28 03:11:05;;;;;;;;;;;;;;;7.32;49.30;99197.66;4394184;32;19965;-80
2022/12/28 03:13:44;;;;;;;;;;;;;;;7.54;48.64;99196.53;4394393;32;19981;-80
2022/12/28 03:16:12;;;;;;;;;;;;;;;7.67;47.86;99189.56;4393986;32;19961;-80
2022/12/28 03:32:42;;;;;;;;;;;;;;;7.29;48.56;99178.03;4394140;32;20029;-80
2022/12/28 03:35:08;;;;;;;;;;;;;;;7.52;47.79;99172.59;4381268;32;19942;-80
2022/12/28 03:37:40;;;;;;;;;;;;;;;8.06;45.91;99177.87;4393788;32;19961;-79
2022/12/28 03:40:41;;;;;;;;;;;;;;;7.46;47.64;99180.41;4393978;32;19966;-79
2022/12/28 03:46:16;;;;;;;;;;;;;;;7.42;48.43;99169.31;4382827;32;19951;-80
2022/12/28 03:48:43;;;;;;;;;;;;;;;7.35;48.90;99170.25;4394013;32;19976;-80
2022/12/28 03:51:11;;;;;;;;;;;;;;;7.65;48.02;99169.00;4381117;32;19954;-79
2022/12/28 03:53:39;;;;;;;;;;;;;;;7.10;49.31;99166.25;4381399;32;20009;-79
2022/12/28 03:56:09;;;;;;;;;;;;;;;6.87;49.69;99162.22;4381036;32;19951;-80
2022/12/28 03:58:36;;;;;;;;;;;;;;;6.67;50.10;99161.56;4393719;32;19966;-80
2022/12/28 04:01:11;;;;;;;;;;;;;;;6.57;50.44;99154.81;4393780;32;19997;-80
2022/12/28 04:03:38;;;;;;;;;;;;;;;6.65;50.18;99147.91;4394191;32;20033;-80
2022/12/28 04:06:05;;;;;;;;;;;;;;;6.40;50.76;99144.72;4393579;32;20016;-80
2022/12/28 04:08:32;;;;;;;;;;;;;;;7.36;48.89;99148.00;4393965;32;19954;-80
2022/12/28 04:11:00;;;;;;;;;;;;;;;7.56;48.59;99147.75;4393672;32;19946;-80
2022/12/28 04:13:29;;;;;;;;;;;;;;;7.73;46.80;99151.78;4393117;32;19963;-80
2022/12/28 04:15:59;;;;;;;;;;;;;;;7.17;47.70;99145.66;4393702;32;19993;-80
2022/12/28 04:18:26;;;;;;;;;;;;;;;7.79;45.89;99149.13;4380830;32;19989;-79
2022/12/28 04:21:05;;;;;;;;;;;;;;;7.18;47.29;99142.22;4393358;32;19947;-79
2022/12/28 04:23:32;;;;;;;;;;;;;;;6.73;48.55;99135.03;4393666;32;19969;-80
2022/12/28 04:26:06;;;;;;;;;;;;;;;6.49;49.14;99136.12;4393474;32;19946;-80
2022/12/28 04:28:33;;;;;;;;;;;;;;;6.63;49.25;99134.25;4393725;32;19950;-79
2022/12/28 04:31:12;;;;;;;;;;;;;;;5.71;51.57;99121.28;4393403;32;19974;-80
2022/12/28 04:33:39;;;;;;;;;;;;;;;6.89;49.25;99123.72;4380501;32;19998;-80
2022/12/28 04:36:07;;;;;;;;;;;;;;;6.87;48.74;99123.75;4380886;32;19946;-80
2022/12/28 04:38:34;;;;;;;;;;;;;;;7.08;48.47;99125.22;4393650;32;20065;-79
2022/12/28 04:41:07;;;;;;;;;;;;;;;7.18;47.72;99121.69;4393174;32;19954;-79
2022/12/28 04:43:34;;;;;;;;;;;;;;;6.34;49.35;99109.72;4393679;32;19958;-80
2022/12/28 04:46:02;;;;;;;;;;;;;;;6.40;49.80;99118.25;4393527;32;19961;-80
2022/12/28 04:48:29;;;;;;;;;;;;;;;6.63;49.39;99112.03;4393235;32;19943;-79
2022/12/28 04:51:15;;;;;;;;;;;;;;;7.09;48.19;99106.38;4393397;32;19954;-79
2022/12/28 04:53:42;;;;;;;;;;;;;;;7.15;47.83;99110.63;4392339;32;20575;-80
2022/12/28 04:56:09;;;;;;;;;;;;;;;6.65;49.34;99119.69;4392883;32;19954;-80
2022/12/28 04:58:36;;;;;;;;;;;;;;;6.84;48.97;99121.22;4380396;32;19961;-79
2022/12/28 05:01:13;;;;;;;;;;;;;;;6.81;49.46;99122.97;4380493;32;19954;-80
2022/12/28 05:03:41;;;;;;;;;;;;;;;6.67;50.18;99120.53;4380915;32;19962;-79
2022/12/28 05:06:09;;;;;;;;;;;;;;;6.19;51.32;99115.00;4380289;32;19955;-80
2022/12/28 05:08:36;;;;;;;;;;;;;;;6.67;49.68;99117.97;4393188;32;19997;-79
2022/12/28 05:11:04;;;;;;;;;;;;;;;6.79;49.73;99120.41;4380504;32;19997;-80
2022/12/28 05:13:30;;;;;;;;;;;;;;;7.22;47.89;99118.19;4393208;32;19958;-80
2022/12/28 05:16:01;;;;;;;;;;;;;;;7.33;47.63;99112.94;4392907;32;19950;-80
2022/12/28 05:18:28;;;;;;;;;;;;;;;7.25;48.22;99118.19;4393425;32;19998;-80
2022/12/28 05:21:02;;;;;;;;;;;;;;;7.04;49.13;99112.47;4392846;32;19947;-80
2022/12/28 05:23:29;;;;;;;;;;;;;;;6.75;49.36;99107.63;4392940;32;19964;-80
2022/12/28 05:25:56;;;;;;;;;;;;;;;7.22;48.47;99110.50;4393017;32;19965;-80
2022/12/28 05:28:23;;;;;;;;;;;;;;;7.05;48.95;99109.03;4392972;32;19970;-80
2022/12/28 05:30:56;;;;;;;;;;;;;;;7.00;48.71;99105.62;4392812;32;19950;-79
2022/12/28 05:33:23;;;;;;;;;;;;;;;7.67;47.19;99107.38;4392685;32;19954;-80
2022/12/28 05:35:50;;;;;;;;;;;;;;;6.88;49.26;99110.03;4392897;32;19961;-80
2022/12/28 05:38:16;;;;;;;;;;;;;;;7.44;47.74;99107.66;4392484;32;19942;-79
2022/12/28 05:40:57;;;;;;;;;;;;;;;7.39;47.73;99114.59;4392358;32;19947;-79
2022/12/28 05:43:24;;;;;;;;;;;;;;;6.71;49.19;99123.94;4392672;32;19955;-79
2022/12/28 05:45:51;;;;;;;;;;;;;;;6.56;49.61;99125.75;4392357;32;19950;-80
2022/12/28 05:48:17;;;;;;;;;;;;;;;6.66;49.27;99129.94;4392746;32;19942;-80
2022/12/28 05:50:49;;;;;;;;;;;;;;;6.62;49.06;99128.28;4392081;32;19993;-79
2022/12/28 05:53:19;;;;;;;;;;;;;;;7.00;48.44;99127.00;4392577;32;20014;-80
2022/12/28 05:55:45;;;;;;;;;;;;;;;7.47;47.60;99130.75;4392446;32;20034;-80
2022/12/28 05:58:12;;;;;;;;;;;;;;;7.19;48.04;99131.06;4392137;32;19981;-80
2022/12/28 06:00:59;;;;;;;;;;;;;;;6.85;48.86;99138.31;4392392;32;19946;-80
2022/12/28 06:03:26;;;;;;;;;;;;;;;6.96;48.75;99130.50;4392363;32;19962;-80
2022/12/28 06:05:52;;;;;;;;;;;;;;;7.14;48.49;99134.56;4393776;32;19946;-80
2022/12/28 06:08:19;;;;;;;;;;;;;;;7.67;47.38;99126.19;4394771;32;19951;-80
2022/12/28 06:11:05;;;;;;;;;;;;;;;7.71;47.24;99127.84;4394327;32;19970;-80
2022/12/28 06:13:31;;;;;;;;;;;;;;;7.92;46.41;99133.53;4394290;32;19993;-79
2022/12/28 06:15:58;;;;;;;;;;;;;;;8.74;43.90;99144.25;4381865;32;19959;-80
2022/12/28 06:18:27;;;;;;;;;;;;;;;8.05;45.31;99138.47;4381393;32;19974;-78
2022/12/28 06:20:54;;;;;;;;;;;;;;;8.27;44.69;99140.69;4394714;32;19954;-80
2022/12/28 06:23:22;;;;;;;;;;;;;;;7.70;45.81;99128.72;4394813;32;20002;-80
2022/12/28 06:25:49;;;;;;;;;;;;;;;8.03;45.05;99142.78;4394415;32;19946;-79
2022/12/28 06:28:15;;;;;;;;;;;;;;;7.92;45.09;99142.09;4394676;32;19947;-80
2022/12/28 06:30:49;;;;;;;;;;;;;;;7.93;45.55;99130.09;4394478;32;19996;-80
2022/12/28 06:33:18;;;;;;;;;;;;;;;7.44;47.12;99123.06;4394773;32;19958;-80
2022/12/28 06:35:45;;;;;;;;;;;;;;;6.40;49.29;99113.12;4394807;32;19950;-79
2022/12/28 06:38:11;;;;;;;;;;;;;;;5.89;50.95;99118.59;4394938;32;19961;-79
2022/12/28 06:40:52;;;;;;;;;;;;;;;6.81;49.24;99112.72;4394754;32;20146;-79
2022/12/28 06:43:39;;;;;;;;;;;;;;;7.23;48.30;99103.63;4394832;32;19955;-80
2022/12/28 06:46:05;;;;;;;;;;;;;;;7.72;47.57;99114.12;4394635;32;19961;-80
2022/12/28 06:48:33;;;;;;;;;;;;;;;8.23;45.37;99124.50;4394648;32;19942;-80
2022/12/28 06:51:26;;;;;;;;;;;;;;;7.57;46.48;99128.91;4381945;32;19965;-80
2022/12/28 06:53:53;;;;;;;;;;;;;;;7.43;47.32;99122.22;4394821;32;19954;-79
2022/12/28 06:56:24;;;;;;;;;;;;;;;7.97;46.43;99130.00;4382032;32;19947;-80
2022/12/28 06:58:51;;;;;;;;;;;;;;;7.68;47.00;99120.19;4395094;32;19981;-80
2022/12/28 07:01:36;;;;;;;;;;;;;;;7.76;46.09;99120.94;4394668;32;19959;-79
2022/12/28 07:04:04;;;;;;;;;;;;;;;8.37;45.38;99125.13;4381977;32;20008;-80
2022/12/28 07:06:33;;;;;;;;;;;;;;;9.03;43.58;99125.66;4394683;32;19965;-80
2022/12/28 07:09:02;;;;;;;;;;;;;;;8.80;44.24;99123.53;4394656;32;19946;-80
2022/12/28 07:11:39;;;;;;;;;;;;;;;9.39;42.85;99116.37;4394817;32;19961;-80
2022/12/28 07:14:06;;;;;;;;;;;;;;;8.90;44.41;99118.19;4395019;32;19974;-80
2022/12/28 07:16:33;;;;;;;;;;;;;;;8.82;44.80;99117.47;4393701;32;20001;-80
2022/12/28 07:18:58;;;;;;;;;;;;;;;8.57;45.35;99113.66;4394757;32;19974;-80
2022/12/28 07:21:35;;;;;;;;;;;;;;;9.53;43.36;99106.63;4382120;32;19996;-80
2022/12/28 07:24:03;;;;;;;;;;;;;;;9.36;43.90;99111.25;4395031;32;19966;-80
2022/12/28 07:26:30;;;;;;;;;;;;;;;8.45;45.40;99117.28;4394741;32;19946;-80
2022/12/28 07:28:58;;;;;;;;;;;;;;;8.69;45.49;99116.84;4394784;32;19961;-80
2022/12/28 07:31:27;;;;;;;;;;;;;;;8.89;45.41;99113.91;4394962;32;19954;-80
2022/12/28 07:33:54;;;;;;;;;;;;;;;9.95;43.13;99116.84;4428034;27;19974;-80
2022/12/28 07:36:21;;;;;;;;;;;;;;;9.41;44.36;99118.03;4424911;32;19954;-80
2022/12/28 07:38:48;;;;;;;;;;;;;;;9.31;45.12;99115.69;4412149;32;19992;-81
2022/12/28 07:41:16;;;;;;;;;;;;;;;8.91;46.12;99112.16;4804900;27;20091;-80
2022/12/28 07:43:43;;;;;;;;;;;;;;;8.58;47.44;99120.50;4478791;27;20011;-79
2022/12/28 07:46:13;;;;;;;;;;;;;;;7.75;49.77;99119.19;4490116;27;19989;-80
2022/12/28 07:48:41;;;;;;;;;;;;;;;7.67;50.07;99112.50;4424997;32;19945;-80
2022/12/28 07:51:27;;;;;;;;;;;;;;;8.08;49.43;99117.87;4411859;32;20076;-80
2022/12/28 07:53:54;;;;;;;;;;;;;;;8.43;47.42;99108.75;4424982;32;19991;-80
2022/12/28 07:56:21;;;;;;;;;;;;;;;8.21;48.12;99108.25;4424584;32;20004;-80
2022/12/28 07:58:49;;;;;;;;;;;;;;;8.59;47.49;99117.03;4424415;32;19953;-81
2022/12/28 08:01:48;;;;;;;;;;;;;;;8.85;46.72;99114.00;4423934;32;19997;-80
2022/12/28 08:04:16;;;;;;;;;;;;;;;9.17;46.79;99114.22;4423687;32;19954;-80
2022/12/28 08:06:43;;;;;;;;;;;;;;;8.94;47.08;99106.12;4424176;32;19961;-80
2022/12/28 08:09:11;;;;;;;;;;;;;;;8.50;47.84;99104.34;4424385;32;19970;-80
2022/12/28 08:11:47;;;;;;;;;;;;;;;8.84;48.04;99097.72;4423545;32;19950;-80
2022/12/28 08:14:14;;;;;;;;;;;;;;;8.23;49.37;99093.63;4423971;32;19999;-80
2022/12/28 08:16:41;;;;;;;;;;;;;;;8.29;48.29;99090.94;4424381;32;19973;-80
2022/12/28 08:19:08;;;;;;;;;;;;;;;7.94;47.25;99095.81;4424116;32;19945;-79
2022/12/28 08:21:36;;;;;;;;;;;;;;;8.17;47.13;99096.28;4424123;32;19964;-80
2022/12/28 08:24:03;;;;;;;;;;;;;;;8.10;47.89;99087.00;4424165;32;19958;-79
2022/12/28 08:26:33;;;;;;;;;;;;;;;9.29;45.70;99087.37;4410957;32;19946;-79
2022/12/28 08:29:00;;;;;;;;;;;;;;;9.91;43.80;99095.47;4423727;32;19945;-80
2022/12/28 08:31:28;;;;;;;;;;;;;;;10.08;43.80;99079.56;4423873;32;19996;-80
2022/12/28 08:33:56;;;;;;;;;;;;;;;9.79;44.21;99083.69;4423470;32;19957;-80
2022/12/28 08:36:23;;;;;;;;;;;;;;;10.10;42.41;99085.53;4423911;32;19960;-80
2022/12/28 08:38:50;;;;;;;;;;;;;;;10.67;41.01;99091.00;4424219;32;19954;-79
2022/12/28 08:41:18;;;;;;;;;;;;;;;10.66;41.00;99091.03;4411486;32;20001;-80
2022/12/28 08:43:44;;;;;;;;;;;;;;;10.76;40.60;99100.22;4411907;32;20003;-80
2022/12/28 08:46:12;;;;;;;;;;;;;;;10.74;40.99;99096.84;4423987;32;19987;-80
2022/12/28 08:48:39;;;;;;;;;;;;;;;10.95;39.84;99085.06;4411649;32;19979;-80
2022/12/28 08:51:40;;;;;;;;;;;;;;;11.28;39.17;99086.72;4424286;32;19950;-80
2022/12/28 08:54:08;;;;;;;;;;;;;;;11.78;37.65;99080.91;4424113;32;20002;-80
2022/12/28 08:56:35;;;;;;;;;;;;;;;11.30;37.81;99072.00;4411465;32;19974;-80
2022/12/28 08:59:02;;;;;;;;;;;;;;;11.23;37.76;99073.06;4424219;32;19945;-80
2022/12/28 09:01:33;;;;;;;;;;;;;;;11.41;38.45;99076.00;4424141;32;19961;-80
2022/12/28 09:04:10;;;;;;;;;;;;;;;12.33;36.50;99087.75;4424376;32;19985;-80
2022/12/28 09:06:37;;;;;;;;;;;;;;;12.49;36.51;99092.44;4424270;32;19960;-80
2022/12/28 09:09:05;;;;;;;;;;;;;;;12.54;37.25;99087.94;4424263;32;19950;-80
2022/12/28 09:11:33;;;;;;;;;;;;;;;13.21;36.04;99086.44;4406009;32;20041;-81
2022/12/28 09:14:00;;;;;;;;;;;;;;;13.02;36.20;99086.22;4415358;32;19997;-79
2022/12/28 09:16:27;;;;;;;;;;;;;;;12.84;36.26;99076.50;4413074;32;19996;-79
2022/12/28 09:18:55;;;;;;;;;;;;;;;12.71;36.52;99081.28;4413411;32;20348;-79
2022/12/28 09:21:22;;;;;;;;;;;;;;;12.16;36.06;99077.97;4397433;32;19958;-79
2022/12/28 09:23:49;;;;;;;;;;;;;;;12.06;36.47;99068.81;4412598;32;19985;-79
2022/12/28 09:26:26;;;;;;;;;;;;;;;11.62;36.71;99051.25;4411663;32;20434;-79
2022/12/28 09:28:54;;;;;;;;;;;;;;;11.40;37.41;99051.91;4412026;32;19969;-79
2022/12/28 09:31:21;;;;;;;;;;;;;;;11.67;36.91;99045.03;4411463;32;19973;-79
2022/12/28 09:34:00;;;;;;;;;;;;;;;12.03;36.26;99039.63;4411945;32;20334;-79
2022/12/28 09:36:47;;;;;;;;;;;;;;;11.65;36.53;99044.25;4417504;32;19989;-79
2022/12/28 09:39:16;;;;;;;;;;;;;;;12.17;35.50;99047.78;4418771;32;19991;-79
2022/12/28 09:41:58;;;;;;;;;;;;;;;12.42;35.98;99046.03;4418855;32;20008;-79
2022/12/28 09:44:34;;;;;;;;;;;;;;;12.82;35.61;99039.47;4416399;32;19996;-79
2022/12/28 09:47:07;;;;;;;;;;;;;;;14.16;33.11;99043.81;4415747;32;20342;-80
2022/12/28 09:49:41;;;;;;;;;;;;;;;13.85;34.02;99050.25;4416811;32;20027;-79
2022/12/28 09:52:14;;;;;;;;;;;;;;;14.08;33.12;99056.25;4404074;32;19982;-79
2022/12/28 09:54:40;;;;;;;;;;;;;;;13.22;33.66;99056.19;4419337;32;19992;-78
2022/12/28 09:57:14;;;;;;;;;;;;;;;12.68;34.39;99046.91;4419984;32;19978;-78
2022/12/28 09:59:42;;;;;;;;;;;;;;;12.73;34.71;99055.34;4407531;32;20027;-79
2022/12/28 10:02:15;;;;;;;;;;;;;;;13.43;34.00;99059.72;4421558;32;19954;-79
2022/12/28 10:04:41;;;;;;;;;;;;;;;12.43;34.80;99060.66;4408584;32;20074;-78
2022/12/28 10:07:14;;;;;;;;;;;;;;;12.88;34.39;99053.97;4422463;32;19999;-78
2022/12/28 10:09:45;;;;;;;;;;;;;;;13.22;33.90;99057.03;4421305;32;20007;-78
2022/12/28 10:12:23;;;;;;;;;;;;;;;12.74;34.63;99060.44;4420364;32;19996;-78
2022/12/28 10:14:49;;;;;;;;;;;;;;;12.42;35.10;99055.53;4420311;32;19988;-78
2022/12/28 10:17:16;;;;;;;;;;;;;;;11.83;36.19;99059.22;4407880;32;19961;-78
2022/12/28 10:19:44;;;;;;;;;;;;;;;11.36;37.46;99047.72;4407476;32;20004;-78
2022/12/28 10:22:12;;;;;;;;;;;;;;;10.73;37.82;99040.91;4408918;32;19961;-78
2022/12/28 10:24:39;;;;;;;;;;;;;;;10.81;39.16;99043.31;4422152;32;19980;-78
2022/12/28 10:27:06;;;;;;;;;;;;;;;11.70;36.87;99047.56;4410548;32;19966;-79
2022/12/28 10:29:52;;;;;;;;;;;;;;;11.78;36.36;99036.94;4424494;32;19950;-78
2022/12/28 10:32:19;;;;;;;;;;;;;;;13.03;34.52;99037.84;4422563;32;19954;-79
2022/12/28 10:34:54;;;;;;;;;;;;;;;12.39;35.75;99030.63;4423554;32;19988;-79
2022/12/28 10:37:20;;;;;;;;;;;;;;;12.78;34.91;99022.38;4410547;32;19997;-79
2022/12/28 10:39:49;;;;;;;;;;;;;;;13.36;34.16;99025.37;4409816;32;19946;-79
2022/12/28 10:42:26;;;;;;;;;;;;;;;14.08;32.75;99013.00;4421975;32;19968;-79
2022/12/28 10:47:41;;;;;;;4.22;1.30;;;;;;;12.64;33.24;98996.09;4539533;31;325905;-76
2022/12/28 10:50:48;;;;;;;5.68;1.30;;;;;;;12.64;33.24;98996.09;4535285;31;20171;-77
2022/12/28 10:53:29;;;;;;;3.55;1.50;;;;;;;11.19;36.54;98998.31;4548536;31;20101;-76
2022/12/28 10:56:13;;;;;;;5.45;1.30;;;;;;;10.87;36.51;99002.69;4548090;31;20156;-76
2022/12/28 10:58:45;;;;;;;3.10;1.48;;;;;;;10.65;36.98;98999.84;4548087;31;20082;-76
2022/12/28 11:01:13;;;;;;;5.30;1.77;;;;;;;10.43;37.43;98991.88;4547569;31;20091;-76
2022/12/28 11:03:45;;;;;;;3.95;1.48;;;;;;;10.60;37.06;98987.97;4552960;31;20117;-81
2022/12/28 11:06:17;;;;;;;5.82;1.62;;;;;;;10.49;37.21;98982.25;4532265;31;20079;-86
2022/12/28 11:09:04;;;;;;;4.47;1.67;;;;;;;11.00;36.93;98979.91;4547310;31;20441;-86
2022/12/28 11:11:32;;;;;;;4.90;1.67;;;;;;;10.62;36.58;98974.13;4547290;31;20096;-87
2022/12/28 11:14:03;;;;;;;3.72;1.48;;;;;;;10.43;37.05;98978.97;4547658;31;20092;-88
2022/12/28 11:16:33;;;;;;;4.55;1.60;;;;;;;11.11;37.39;98971.84;4548254;31;20087;-79
2022/12/28 11:19:00;;;;;;;4.40;1.50;;;;;;;11.07;36.26;98970.28;4549758;31;20111;-80
2022/12/28 11:21:27;;;;;;;4.15;1.70;;;;;;;11.23;36.16;98961.16;4548203;31;20113;-80
2022/12/28 11:23:54;;;;;;;4.32;1.80;;;;;;;11.04;36.51;98960.84;4548084;31;20070;-80
2022/12/28 11:26:21;;;;;;;5.40;1.70;;;;;;;11.31;37.02;98961.75;4547548;31;20126;-80
2022/12/28 11:28:50;;;;;;;6.10;1.80;;;;;;;11.27;35.85;98954.97;4532945;31;20121;-80
2022/12/28 11:31:27;;;;;;;3.35;1.42;;;;;;;11.46;35.76;98956.09;4533630;31;20095;-80
2022/12/28 11:33:57;;;;;;;2.75;1.30;;;;;;;11.13;35.91;98952.81;4548572;31;20434;-80
2022/12/28 11:36:25;;;;;;;3.97;1.12;;;;;;;10.55;36.37;98946.81;4548241;31;20581;-80
2022/12/28 11:38:55;;;;;;;2.85;1.10;;;;;;;10.73;36.68;98943.69;4534994;31;20159;-80
2022/12/28 11:41:26;;;;;;;4.72;1.35;;;;;;;10.78;36.70;98938.41;4548262;31;20099;-80
2022/12/28 11:44:04;;;;;;;3.97;1.30;;;;;;;10.29;36.70;98926.87;4548163;31;20098;-80
2022/12/28 11:46:33;;;;;;;2.33;1.12;;;;;;;10.22;36.28;98914.22;4548939;31;20080;-80
2022/12/28 11:49:19;;;;;;;2.85;1.20;;;;;;;9.63;37.36;98906.28;4549401;31;20147;-80
2022/12/28 11:51:46;;;;;;;4.37;1.50;;;;;;;9.47;38.31;98913.56;4549972;31;20135;-80
2022/12/28 11:54:31;;;;;;;;;;;;;;;9.57;39.12;98907.28;4550671;31;20060;-80
2022/12/28 11:56:58;;;;;;;3.30;1.20;;;;;;;9.66;39.28;98904.47;4547999;31;19943;-80
2022/12/28 11:59:30;;;;;;;3.67;1.37;;;;;;;9.48;39.53;98892.91;4539163;31;20116;-80
2022/12/28 12:02:02;;;;;;;5.22;1.20;;;;;;;9.29;40.24;98896.81;4525096;31;20797;-80
2022/12/28 12:04:38;;;;;;;6.28;1.40;;;;;;;9.43;39.64;98886.16;4523912;31;20126;-80
2022/12/28 12:07:06;;;;;;;2.42;1.12;;;;;;;9.61;39.29;98880.56;4537613;31;20131;-80
2022/12/28 12:09:37;;;;;;;4.28;1.30;;;;;;;9.63;38.82;98881.34;4537385;31;21171;-80
2022/12/28 12:12:13;;;;;;;2.12;1.10;;;;;;;9.82;39.52;98880.00;4537315;31;20596;-80
2022/12/28 12:14:47;;;;;;;5.03;1.37;;;;;;;10.13;38.52;98874.03;4537390;31;20136;-80
2022/12/28 12:17:39;;;;;;;4.57;1.60;;;;;;;10.02;38.33;98869.16;4522394;31;20100;-80
2022/12/28 12:20:53;;;;;;;5.32;1.55;;;;;;;10.04;38.37;98862.22;4537191;31;20143;-80
2022/12/28 12:23:35;;;;;;;4.32;1.40;;;;;;;9.98;39.29;98864.09;4455426;32;20132;-81
2022/12/28 12:26:26;;;;;;;3.80;1.50;;;;;;;9.96;39.13;98859.00;4534255;31;20082;-80
2022/12/28 12:28:59;;;;;;;5.07;1.60;;;;;;;9.98;38.89;98853.78;4537148;31;20216;-80
2022/12/28 12:31:34;;;;;;;3.42;1.52;;;;;;;10.28;38.95;98850.41;4522136;31;20101;-80
2022/12/28 12:34:11;;;;;;;4.28;1.50;;;;;;;10.46;38.74;98846.44;4536877;31;20095;-80
2022/12/28 12:36:46;;;;;;;3.47;1.42;;;;;;;10.63;38.27;98848.50;4536858;31;20121;-80
2022/12/28 12:39:31;;;;;;;5.68;1.40;;;;;;;10.36;38.25;98842.44;4536461;31;20464;-80
2022/12/28 12:42:32;;;;;;;4.72;1.58;;;;;;;10.57;38.75;98839.22;4522567;31;20099;-80
2022/12/28 12:45:34;;;;;;;4.85;1.73;;;;;;;10.42;38.65;98834.53;4536491;31;20601;-80
2022/12/28 12:48:09;;;;;;;5.90;1.60;;;;;;;9.35;40.25;98828.84;4536883;31;20083;-80
2022/12/28 12:51:04;;;;;;;6.85;1.75;;;;;;;10.04;39.74;98836.44;4536922;31;20084;-80
2022/12/28 12:53:35;;;;;;;6.00;1.67;;;;;;;9.98;39.47;98836.59;4536264;31;20096;-80
2022/12/28 12:56:44;;;;;;;4.87;1.70;;;;;;;9.67;40.34;98839.16;4522466;31;20370;-80
2022/12/28 12:59:33;;;;;;;6.18;1.60;;;;;;;9.45;40.82;98830.28;4536278;31;20087;-80
2022/12/28 13:02:28;;;;;;;4.95;1.83;;;;;;;9.87;40.32;98828.31;4536912;31;20144;-80
2022/12/28 13:04:56;;;;;;;5.50;1.80;;;;;;;10.22;39.95;98844.59;4536977;31;20114;-80
2022/12/28 13:07:24;;;;;;;5.47;1.70;;;;;;;10.67;38.67;98847.53;4521973;31;20111;-80
2022/12/28 13:09:54;;;;;;;3.70;1.62;;;;;;;10.49;39.50;98832.59;4521253;31;20170;-80
2022/12/28 13:12:22;;;;;;;5.57;1.83;;;;;;;10.59;39.30;98824.53;4522036;31;20101;-80
2022/12/28 13:14:57;;;;;;;4.28;1.60;;;;;;;10.11;40.39;98814.75;4536857;31;20819;-80
2022/12/28 13:17:25;;;;;;;5.37;1.83;;;;;;;9.99;40.63;98809.91;4537018;31;20143;-80
2022/12/28 13:20:07;;;;;;;6.20;2.78;;;;;;;9.82;41.04;98805.25;4522423;31;20091;-80
2022/12/28 13:22:34;;;;;;;4.25;1.83;;;;;;;9.41;41.87;98797.78;4537158;31;20135;-80
2022/12/28 13:25:01;;;;;;;;;;;;;;;9.22;41.83;98794.84;4537976;31;20091;-80
2022/12/28 13:27:34;;;;;;;6.68;1.90;;;;;;;9.27;41.64;98791.28;4536961;31;19974;-80
2022/12/28 13:30:02;;;;;;;5.68;1.80;;;;;;;9.57;42.00;98786.22;4523415;31;20110;-80
2022/12/28 13:32:33;;;;;;;4.65;1.90;;;;;;;9.16;42.29;98775.25;4537509;31;20424;-80
2022/12/28 13:35:19;;;;;;;5.35;1.98;;;;;;;9.37;42.56;98781.56;4522873;31;20115;-80
2022/12/28 13:38:19;;;;;;;5.93;2.10;;;;;;;9.10;42.96;98780.53;4537327;31;20159;-80
2022/12/28 13:40:50;;;;;;;8.05;3.12;;;;;;;9.01;43.46;98779.91;4493487;31;20092;-80